Time;durP1;ratioP1;P1;durP2;ratioP2;P2;SDS_P1;SDS_P2;PMS_P1;PMS_P2;Temp;Humidity;BMP_temperature;BMP_pressure;BME280_temperature;BME280_humidity;BME280_pressure;Samples;Min_cycle;Max_cycle;Signal;HPM_P1;HPM_P2
2022/11/07 00:01:35;;;;;;;15.50;5.58;;;;;;;11.28;70.93;101805.58;1735225;82;25808;-61
2022/11/07 00:04:02;;;;;;;9.50;4.90;;;;;;;11.30;70.94;101797.88;1740245;80;27500;-61
2022/11/07 00:06:29;;;;;;;9.88;4.92;;;;;;;11.30;70.73;101804.61;1735771;82;25495;-61
2022/11/07 00:08:58;;;;;;;16.82;5.20;;;;;;;11.31;70.77;101809.02;1737129;82;25526;-61
2022/11/07 00:11:25;;;;;;;8.60;4.92;;;;;;;11.32;70.64;101803.51;1735866;82;25764;-61
2022/11/07 00:13:51;;;;;;;9.58;4.78;;;;;;;11.34;70.76;101807.45;1735488;82;25784;-61
2022/11/07 00:16:18;;;;;;;12.00;5.47;;;;;;;11.34;70.53;101810.15;1735533;82;27488;-61
2022/11/07 00:18:44;;;;;;;14.18;5.62;;;;;;;11.36;70.48;101808.17;1736199;82;25895;-61
2022/11/07 00:21:11;;;;;;;12.78;5.10;;;;;;;11.35;70.28;101807.80;1737085;82;26904;-61
2022/11/07 00:23:41;;;;;;;13.18;5.00;;;;;;;11.35;70.21;101809.14;1735027;82;25802;-61
2022/11/07 00:26:12;;;;;;;14.78;4.95;;;;;;;11.30;70.04;101806.80;1716135;82;26122;-61
2022/11/07 00:28:41;;;;;;;13.83;5.80;;;;;;;11.25;69.92;101803.61;1735826;82;27596;-61
2022/11/07 00:31:12;;;;;;;14.38;5.20;;;;;;;11.20;70.01;101810.69;1735474;82;25665;-61
2022/11/07 00:33:39;;;;;;;11.88;5.80;;;;;;;11.16;70.06;101807.83;1735487;82;25851;-61
2022/11/07 00:36:08;;;;;;;12.07;5.55;;;;;;;11.18;70.05;101807.74;1735747;82;26474;-61
2022/11/07 00:38:35;;;;;;;15.00;6.28;;;;;;;11.18;70.00;101806.39;1713226;82;25521;-61
2022/11/07 00:41:05;;;;;;;10.43;5.20;;;;;;;11.16;70.04;101806.98;1735495;82;27489;-62
2022/11/07 00:43:32;;;;;;;17.30;5.50;;;;;;;11.12;70.01;101805.86;1735943;82;25786;-61
2022/11/07 00:46:05;;;;;;;10.15;5.17;;;;;;;11.11;70.02;101816.76;1735497;82;25728;-61
2022/11/07 00:48:33;;;;;;;9.98;5.03;;;;;;;11.09;70.17;101810.15;1740300;82;26456;-61
2022/11/07 00:51:19;;;;;;;13.65;4.78;;;;;;;11.09;70.12;101810.62;1736054;82;25771;-61
2022/11/07 00:53:47;;;;;;;16.93;5.33;;;;;;;11.13;70.38;101810.78;1736304;82;28360;-61
2022/11/07 00:56:18;;;;;;;12.68;4.85;;;;;;;11.14;70.07;101810.27;1736143;82;25815;-61
2022/11/07 00:58:45;;;;;;;8.00;4.87;;;;;;;11.07;69.98;101813.44;1736108;82;25736;-61
2022/11/07 01:01:23;;;;;;;11.40;4.47;;;;;;;11.07;70.16;101808.05;1750852;80;25798;-61
2022/11/07 01:06:39;;;;;;;15.58;5.20;;;;;;;11.07;70.10;101807.20;1735982;82;27479;-61
2022/11/07 01:09:13;;;;;;;11.57;4.78;;;;;;;11.07;69.99;101811.24;1735642;82;25833;-61
2022/11/07 01:11:41;;;;;;;9.98;4.58;;;;;;;11.08;69.96;101808.42;1736346;82;25690;-60
2022/11/07 01:14:11;;;;;;;14.25;4.65;;;;;;;11.10;69.99;101802.45;1735928;82;25948;-61
2022/11/07 01:16:37;;;;;;;11.22;4.95;;;;;;;11.08;69.69;101799.47;1735878;82;25768;-61
2022/11/07 01:19:06;;;;;;;9.13;5.15;;;;;;;10.99;69.62;101794.30;1735843;82;27539;-61
2022/11/07 01:21:34;;;;;;;13.48;5.47;;;;;;;10.92;69.65;101790.34;1736248;82;25676;-61
2022/11/07 01:24:02;;;;;;;12.40;5.00;;;;;;;10.91;69.59;101792.16;1723105;82;25770;-61
2022/11/07 01:26:29;;;;;;;10.75;5.62;;;;;;;10.86;69.61;101786.73;1736713;82;25958;-61
2022/11/07 01:28:56;;;;;;;18.98;5.65;;;;;;;10.78;69.70;101796.25;1759199;80;25716;-61
2022/11/07 01:31:23;;;;;;;12.15;5.58;;;;;;;10.74;69.73;101793.42;1743383;79;27504;-61
2022/11/07 01:33:50;;;;;;;13.45;5.58;;;;;;;10.71;69.71;101794.98;1735725;82;25466;-61
2022/11/07 01:36:18;;;;;;;12.10;5.70;;;;;;;10.68;69.71;101794.34;1735771;82;25447;-61
2022/11/07 01:38:49;;;;;;;11.40;5.90;;;;;;;10.64;69.75;101793.72;1740477;82;25649;-61
2022/11/07 01:41:21;;;;;;;12.45;5.67;;;;;;;10.63;69.75;101791.49;1743286;81;25743;-61
2022/11/07 01:43:56;;;;;;;12.63;4.90;;;;;;;10.59;69.89;101788.66;1743774;82;28148;-61
2022/11/07 01:46:33;;;;;;;14.28;5.92;;;;;;;10.60;69.89;101790.39;1743774;81;25942;-61
2022/11/07 01:49:21;;;;;;;10.05;5.62;;;;;;;10.62;69.94;101792.96;1743210;82;25910;-61
2022/11/07 01:52:16;;;;;;;13.83;4.67;;;;;;;10.61;70.08;101785.39;1743477;82;26457;-61
2022/11/07 01:55:03;;;;;;;12.85;4.60;;;;;;;10.58;70.06;101784.25;1743430;82;25458;-61
2022/11/07 01:57:41;;;;;;;15.10;4.53;;;;;;;10.56;70.00;101786.69;1743625;82;27483;-61
2022/11/07 02:00:13;;;;;;;18.30;4.53;;;;;;;10.53;70.08;101783.73;1743310;82;26331;-61
2022/11/07 02:02:41;;;;;;;10.40;4.25;;;;;;;10.52;70.05;101786.52;1750286;80;25765;-61
2022/11/07 02:05:10;;;;;;;11.05;4.58;;;;;;;10.51;69.97;101786.14;1753663;80;25998;-61
2022/11/07 02:07:38;;;;;;;9.13;4.55;;;;;;;10.52;69.99;101783.83;1743684;82;25763;-61
2022/11/07 02:10:06;;;;;;;15.03;5.22;;;;;;;10.51;69.96;101778.95;1743036;82;27524;-61
2022/11/07 02:12:33;;;;;;;8.85;5.28;;;;;;;10.47;69.85;101779.66;1743574;82;25776;-61
2022/11/07 02:15:01;;;;;;;10.80;5.08;;;;;;;10.46;69.86;101781.97;1742992;81;25756;-61
2022/11/07 02:17:28;;;;;;;14.93;5.80;;;;;;;10.48;69.68;101783.20;1743406;81;25790;-61
2022/11/07 02:19:56;;;;;;;12.23;5.67;;;;;;;10.45;69.61;101780.25;1743432;82;25749;-60
2022/11/07 02:22:43;;;;;;;10.98;5.40;;;;;;;10.41;69.60;101788.15;1743680;82;28067;-61
2022/11/07 02:25:14;;;;;;;13.00;6.05;;;;;;;10.39;69.57;101781.16;1743031;81;25541;-61
2022/11/07 02:27:42;;;;;;;10.35;5.20;;;;;;;10.33;69.60;101779.73;1743362;82;25752;-60
2022/11/07 02:30:23;;;;;;;14.60;6.05;;;;;;;10.26;69.73;101780.69;1743734;82;25977;-60
2022/11/07 02:32:50;;;;;;;12.07;5.87;;;;;;;10.22;69.86;101774.29;1743463;82;25819;-61
2022/11/07 02:35:43;;;;;;;12.35;5.95;;;;;;;10.17;69.89;101773.27;1744083;82;27667;-61
2022/11/07 02:38:20;;;;;;;13.65;5.83;;;;;;;10.13;70.22;101775.29;1742934;82;26151;-60
2022/11/07 02:40:52;;;;;;;11.60;4.70;;;;;;;10.07;70.49;101778.92;1743265;82;25731;-60
2022/11/07 02:43:25;;;;;;;11.30;5.05;;;;;;;10.05;70.73;101778.16;1743538;81;25823;-61
2022/11/07 02:45:53;;;;;;;13.40;5.15;;;;;;;10.03;70.69;101783.16;1743272;82;25747;-61
2022/11/07 02:48:20;;;;;;;10.68;4.95;;;;;;;10.05;70.76;101785.73;1743722;82;27612;-60
2022/11/07 02:50:46;;;;;;;11.55;5.08;;;;;;;10.07;70.83;101782.95;1743515;81;26088;-61
2022/11/07 02:53:13;;;;;;;10.45;4.58;;;;;;;10.13;70.68;101790.58;1715289;83;25871;-61
2022/11/07 02:55:40;;;;;;;13.80;5.45;;;;;;;10.17;70.60;101786.72;1743753;82;25848;-61
2022/11/07 02:58:06;;;;;;;16.50;4.58;;;;;;;10.20;70.38;101789.16;1744681;81;26001;-61
2022/11/07 03:00:33;;;;;;;11.30;4.75;;;;;;;10.22;70.34;101795.30;1743186;82;27319;-61
2022/11/07 03:03:03;;;;;;;11.57;4.90;;;;;;;10.25;70.21;101795.56;1758013;80;25754;-61
2022/11/07 03:05:31;;;;;;;8.83;5.08;;;;;;;10.25;70.08;101792.41;1747848;80;25769;-61
2022/11/07 03:07:57;;;;;;;14.83;5.60;;;;;;;10.25;70.03;101800.48;1743383;82;26721;-61
2022/11/07 03:10:24;;;;;;;15.40;5.55;;;;;;;10.28;69.95;101799.39;1743230;82;25727;-61
2022/11/07 03:12:51;;;;;;;13.58;6.80;;;;;;;10.28;69.86;101806.96;1743486;81;27448;-61
2022/11/07 03:15:20;;;;;;;13.28;5.78;;;;;;;10.32;69.81;101806.25;1743337;81;26062;-62
2022/11/07 03:17:46;;;;;;;12.00;6.33;;;;;;;10.31;69.62;101808.56;1744037;82;25751;-61
2022/11/07 03:20:13;;;;;;;15.68;5.37;;;;;;;10.31;69.47;101810.79;1743370;82;25852;-61
2022/11/07 03:22:40;;;;;;;15.48;6.05;;;;;;;10.31;69.15;101800.03;1743240;82;25462;-62
2022/11/07 03:25:07;;;;;;;11.20;5.55;;;;;;;10.27;69.14;101802.55;1743972;81;29569;-61
2022/11/07 03:27:34;;;;;;;15.65;6.75;;;;;;;10.26;69.00;101806.23;1743273;82;25734;-61
2022/11/07 03:30:05;;;;;;;17.05;5.78;;;;;;;10.24;68.97;101807.28;1743634;81;25855;-61
2022/11/07 03:32:33;;;;;;;10.35;6.17;;;;;;;10.22;69.14;101805.22;1742852;81;26016;-61
2022/11/07 03:35:00;;;;;;;13.28;4.97;;;;;;;10.23;69.19;101803.75;1743042;82;25784;-61
2022/11/07 03:37:29;;;;;;;10.18;5.42;;;;;;;10.24;69.38;101801.91;1742557;81;27481;-61
2022/11/07 03:39:57;;;;;;;18.10;5.40;;;;;;;10.20;69.14;101803.11;1739560;81;25974;-61
2022/11/07 03:42:24;;;;;;;11.03;5.00;;;;;;;10.14;69.33;101812.47;1738029;80;25784;-61
2022/11/07 03:44:50;;;;;;;13.70;5.55;;;;;;;10.12;69.34;101803.64;1738294;81;25815;-61
2022/11/07 03:47:17;;;;;;;13.55;5.17;;;;;;;10.09;69.32;101810.10;1737862;82;25813;-61
2022/11/07 03:49:48;;;;;;;10.43;5.55;;;;;;;10.07;69.53;101811.18;1738353;82;27465;-61
2022/11/07 03:52:14;;;;;;;13.30;5.10;;;;;;;10.06;69.41;101808.11;1739230;82;25752;-61
2022/11/07 03:54:41;;;;;;;17.87;4.97;;;;;;;10.01;69.45;101813.31;1737672;82;25759;-61
2022/11/07 03:57:10;;;;;;;15.15;6.15;;;;;;;10.01;69.53;101816.00;1713418;82;25767;-61
2022/11/07 03:59:37;;;;;;;17.37;6.50;;;;;;;10.00;69.46;101811.59;1738399;82;25823;-61
2022/11/07 04:02:04;;;;;;;16.15;7.22;;;;;;;9.97;69.37;101805.57;1738925;82;27493;-61
2022/11/07 04:04:33;;;;;;;21.80;7.40;;;;;;;9.93;69.30;101808.11;1731852;82;25837;-61
2022/11/07 04:07:00;;;;;;;15.25;6.80;;;;;;;9.84;69.33;101802.41;1738091;82;25811;-61
2022/11/07 04:09:26;;;;;;;13.90;7.08;;;;;;;9.83;69.43;101797.12;1737037;82;26356;-61
2022/11/07 04:17:24;;;;;;;14.78;7.28;;;;;;;9.69;69.39;101796.26;1737347;82;25697;-61
2022/11/07 04:19:56;;;;;;;16.60;8.03;;;;;;;9.63;69.47;101798.50;1737597;82;25806;-61
2022/11/07 04:22:25;;;;;;;16.42;8.30;;;;;;;9.58;69.74;101793.94;1737614;82;25661;-61
2022/11/07 04:24:52;;;;;;;15.60;8.48;;;;;;;9.53;69.88;101795.59;1737730;82;25548;-61
2022/11/07 04:30:18;;;;;;;16.20;7.90;;;;;;;9.42;70.26;101787.39;1726924;82;25547;-61
2022/11/07 04:32:54;;;;;;;15.95;7.10;;;;;;;9.37;70.42;101789.89;1737254;82;25850;-60
2022/11/07 04:35:26;;;;;;;16.25;7.35;;;;;;;9.37;70.79;101787.20;1738084;82;26505;-61
2022/11/07 04:37:53;;;;;;;19.67;7.03;;;;;;;9.35;70.74;101792.30;1737211;81;25948;-61
2022/11/07 04:40:20;;;;;;;13.25;7.10;;;;;;;9.34;70.79;101792.80;1725009;81;27639;-61
2022/11/07 04:42:48;;;;;;;14.68;6.65;;;;;;;9.40;71.11;101788.84;1735561;82;25876;-60
2022/11/07 04:45:16;;;;;;;13.35;6.30;;;;;;;9.43;70.83;101788.62;1732079;82;25757;-61
2022/11/07 04:47:43;;;;;;;10.23;5.85;;;;;;;9.45;70.77;101787.20;1700947;83;25838;-61
2022/11/07 04:50:14;;;;;;;10.15;5.72;;;;;;;9.39;70.70;101790.66;1730646;82;26307;-61
2022/11/07 04:52:41;;;;;;;15.53;6.83;;;;;;;9.38;70.87;101783.56;1724763;82;27460;-61
2022/11/07 04:55:13;;;;;;;19.62;6.97;;;;;;;9.41;70.75;101789.23;1731177;82;26024;-61
2022/11/07 04:57:39;;;;;;;12.80;6.47;;;;;;;9.44;70.83;101790.84;1729421;82;25701;-61
2022/11/07 05:00:08;;;;;;;13.70;6.75;;;;;;;9.46;70.72;101801.85;1729749;80;25842;-60
2022/11/07 05:02:36;;;;;;;14.68;7.60;;;;;;;9.47;70.67;101799.55;1738782;80;25779;-60
2022/11/07 05:05:03;;;;;;;19.45;6.92;;;;;;;9.49;70.55;101798.09;1727694;82;27483;-61
2022/11/07 05:07:30;;;;;;;17.50;6.83;;;;;;;9.48;70.52;101803.08;1732435;82;25850;-61
2022/11/07 05:09:57;;;;;;;17.73;7.35;;;;;;;9.51;70.53;101801.05;1730881;82;25834;-61
2022/11/07 05:12:24;;;;;;;16.75;7.65;;;;;;;9.51;70.39;101798.85;1735107;81;26510;-61
2022/11/07 05:14:50;;;;;;;17.70;8.18;;;;;;;9.51;70.29;101801.54;1735427;82;25776;-61
2022/11/07 05:17:18;;;;;;;13.20;7.50;;;;;;;9.50;70.26;101806.53;1735425;81;27549;-61
2022/11/07 05:19:46;;;;;;;20.32;8.55;;;;;;;9.46;69.92;101811.75;1732932;82;25838;-61
2022/11/07 05:24:58;;;;;;;18.32;7.80;;;;;;;9.43;69.90;101821.34;1718927;82;25947;-60
2022/11/07 05:27:26;;;;;;;21.12;8.65;;;;;;;9.42;69.89;101816.44;1734525;82;26047;-61
2022/11/07 05:29:52;;;;;;;13.65;8.25;;;;;;;9.42;69.78;101816.44;1734327;82;27404;-61
2022/11/07 05:32:19;;;;;;;15.10;8.48;;;;;;;9.37;69.75;101818.58;1734490;82;27222;-61
2022/11/07 05:34:46;;;;;;;15.20;8.60;;;;;;;9.27;69.70;101825.52;1735048;82;26462;-61
2022/11/07 05:37:14;;;;;;;12.68;8.13;;;;;;;9.19;69.69;101823.34;1730083;82;26798;-61
2022/11/07 05:39:40;;;;;;;27.60;9.15;;;;;;;9.12;69.78;101828.27;1732573;81;25863;-61
2022/11/07 05:42:07;;;;;;;15.88;8.50;;;;;;;9.06;70.00;101833.55;1729131;82;29702;-61
2022/11/07 05:44:34;;;;;;;16.82;8.53;;;;;;;9.00;70.22;101831.75;1735319;81;25899;-62
2022/11/07 05:47:01;;;;;;;35.78;8.90;;;;;;;8.96;70.39;101831.09;1730697;82;25651;-61
2022/11/07 05:49:27;;;;;;;17.52;7.30;;;;;;;8.91;70.78;101837.25;1751492;81;25777;-61
2022/11/07 05:51:55;;;;;;;22.07;8.05;;;;;;;8.92;70.75;101839.82;1735040;82;26466;-61
2022/11/07 05:54:23;;;;;;;19.87;8.18;;;;;;;8.95;70.67;101844.12;1734942;82;28236;-61
2022/11/07 05:56:52;;;;;;;22.87;8.28;;;;;;;8.99;70.71;101848.81;1729654;82;25747;-61
2022/11/07 05:59:18;;;;;;;17.05;8.48;;;;;;;9.03;70.45;101853.87;1730059;82;25665;-61
2022/11/07 06:01:45;;;;;;;17.62;8.10;;;;;;;9.05;70.41;101859.17;1736303;81;25730;-61
2022/11/07 06:04:12;;;;;;;28.20;8.55;;;;;;;9.08;70.21;101866.54;1735203;80;25910;-61
2022/11/07 06:06:39;;;;;;;13.95;7.28;;;;;;;9.13;70.19;101866.70;1736842;82;27473;-62
2022/11/07 06:09:06;;;;;;;14.45;7.53;;;;;;;9.22;69.89;101868.33;1735597;82;27237;-61
2022/11/07 06:11:33;;;;;;;20.25;9.28;;;;;;;9.26;69.64;101872.12;1734704;82;25747;-61
2022/11/07 06:14:00;;;;;;;14.90;8.85;;;;;;;9.30;69.59;101866.95;1734127;82;25954;-61
2022/11/07 06:16:27;;;;;;;21.65;10.25;;;;;;;9.32;69.42;101856.48;1735395;82;25644;-61
2022/11/07 06:18:54;;;;;;;44.27;10.70;;;;;;;9.33;69.18;101866.73;1734406;82;29599;-61
2022/11/07 06:21:21;;;;;;;22.40;10.45;;;;;;;9.34;69.05;101864.43;1735279;82;25791;-61
2022/11/07 06:23:47;;;;;;;21.80;10.85;;;;;;;9.36;68.81;101867.87;1735435;82;25772;-61
2022/11/07 06:26:15;;;;;;;21.52;10.35;;;;;;;9.38;68.74;101865.47;1705503;84;25974;-62
2022/11/07 06:28:41;;;;;;;19.73;10.70;;;;;;;9.42;68.21;101873.33;1659419;84;25790;-61
2022/11/07 06:31:09;;;;;;;23.75;10.18;;;;;;;9.39;68.12;101865.85;1734842;82;27636;-61
2022/11/07 06:33:36;;;;;;;25.35;11.28;;;;;;;9.42;67.98;101870.15;1736146;82;25840;-61
2022/11/07 06:36:10;;;;;;;19.37;12.23;;;;;;;9.39;67.92;101869.88;1749596;80;25927;-61
2022/11/07 06:38:38;;;;;;;28.17;14.47;;;;;;;9.42;67.91;101865.28;1728104;82;25922;-61
2022/11/07 06:41:08;;;;;;;32.08;16.02;;;;;;;9.43;67.97;101863.82;1731822;82;25696;-61
2022/11/07 06:43:36;;;;;;;28.42;14.68;;;;;;;9.43;68.03;101865.16;1729225;82;27487;-61
2022/11/07 06:46:09;;;;;;;24.37;13.10;;;;;;;9.45;67.83;101865.08;1729911;82;25713;-61
2022/11/07 06:48:36;;;;;;;22.65;11.73;;;;;;;9.47;68.02;101864.02;1727785;82;33227;-61
2022/11/07 06:51:05;;;;;;;23.52;11.73;;;;;;;9.54;68.01;101860.44;1734321;82;25779;-61
2022/11/07 06:53:32;;;;;;;30.05;13.65;;;;;;;9.59;67.86;101858.79;1728111;82;25840;-61
2022/11/07 06:56:01;;;;;;;23.98;12.80;;;;;;;9.65;67.65;101855.19;1728096;81;27540;-61
2022/11/07 06:58:28;;;;;;;34.25;12.47;;;;;;;9.77;67.86;101845.92;1732402;82;25497;-61
2022/11/07 07:01:07;;;;;;;26.42;12.10;;;;;;;9.87;67.49;101851.89;1734181;82;25839;-61
2022/11/07 07:03:35;;;;;;;27.50;11.83;;;;;;;9.99;67.24;101854.25;1755070;80;25792;-61
2022/11/07 07:06:04;;;;;;;24.35;12.07;;;;;;;10.10;66.59;101848.13;1737882;80;25755;-61
2022/11/07 07:08:32;;;;;;;30.55;12.80;;;;;;;10.20;66.18;101842.10;1735741;82;28295;-61
2022/11/07 07:11:05;;;;;;;31.52;11.73;;;;;;;10.32;66.03;101847.95;1735023;82;25728;-62
2022/11/07 07:13:33;;;;;;;18.50;10.63;;;;;;;10.41;65.94;101838.41;1733497;82;25839;-61
2022/11/07 07:16:00;;;;;;;17.42;10.53;;;;;;;10.54;65.61;101843.78;1735693;82;26722;-62
2022/11/07 07:18:28;;;;;;;16.62;10.45;;;;;;;10.59;65.17;101845.17;1717619;82;25751;-61
2022/11/07 07:21:08;;;;;;;27.70;11.50;;;;;;;10.64;65.01;101843.00;1727307;82;27506;-62
2022/11/07 07:23:37;;;;;;;27.32;11.43;;;;;;;10.68;64.64;101849.52;1722619;81;25828;-61
2022/11/07 07:26:07;;;;;;;30.90;12.60;;;;;;;10.68;64.54;101843.64;1735678;82;25726;-61
2022/11/07 07:28:36;;;;;;;27.75;13.32;;;;;;;10.69;64.62;101845.86;1734059;82;25793;-61
2022/11/07 07:31:19;;;;;;;19.05;12.23;;;;;;;10.70;64.56;101850.27;1735422;82;25867;-61
2022/11/07 07:33:47;;;;;;;30.03;12.57;;;;;;;10.74;64.23;101848.59;1735779;82;28523;-60
2022/11/07 07:36:15;;;;;;;22.98;12.55;;;;;;;10.75;64.19;101855.70;1735257;82;25823;-61
2022/11/07 07:38:43;;;;;;;21.90;13.15;;;;;;;10.73;64.02;101846.87;1734843;82;25729;-60
2022/11/07 07:41:10;;;;;;;28.75;12.15;;;;;;;10.75;63.73;101847.63;1735910;81;25697;-60
2022/11/07 07:43:36;;;;;;;30.08;11.88;;;;;;;10.79;63.71;101845.57;1736887;82;25714;-61
2022/11/07 07:46:06;;;;;;;21.05;11.65;;;;;;;10.82;64.02;101847.17;1738355;82;29611;-60
2022/11/07 07:48:34;;;;;;;22.75;11.90;;;;;;;10.89;64.24;101841.21;1730514;81;25778;-60
2022/11/07 07:51:01;;;;;;;26.48;12.20;;;;;;;11.00;64.25;101843.14;1735341;82;25790;-61
2022/11/07 07:53:28;;;;;;;25.48;12.25;;;;;;;11.16;63.95;101846.88;1737773;82;26580;-60
2022/11/07 07:55:59;;;;;;;23.25;12.45;;;;;;;11.20;63.57;101850.23;1737764;81;25779;-61
2022/11/07 07:58:26;;;;;;;26.12;12.65;;;;;;;11.27;63.30;101842.91;1737888;82;27479;-60
2022/11/07 08:00:58;;;;;;;23.05;12.47;;;;;;;11.39;63.47;101834.39;1733594;82;25735;-60
2022/11/07 08:03:27;;;;;;;21.52;10.80;;;;;;;11.51;63.05;101838.02;1753186;80;25747;-61
2022/11/07 08:05:57;;;;;;;27.07;11.50;;;;;;;11.61;62.43;101834.13;1746425;81;26409;-61
2022/11/07 08:08:24;;;;;;;27.82;12.15;;;;;;;11.71;62.10;101835.62;1737796;82;25845;-61
2022/11/07 08:10:55;;;;;;;22.98;10.72;;;;;;;11.81;61.72;101831.25;1737770;82;27727;-61
2022/11/07 08:13:24;;;;;;;21.05;10.28;;;;;;;11.93;62.05;101825.89;1737333;82;25816;-62
2022/11/07 08:15:53;;;;;;;20.85;9.98;;;;;;;12.04;61.93;101822.75;1738022;82;25833;-61
2022/11/07 08:18:21;;;;;;;17.87;8.75;;;;;;;12.20;61.66;101828.28;1738392;82;25796;-61
2022/11/07 08:20:54;;;;;;;15.58;8.93;;;;;;;12.31;60.98;101822.91;1739734;81;25760;-61
2022/11/07 08:23:22;;;;;;;19.73;9.60;;;;;;;12.46;61.43;101825.38;1737250;80;27450;-61
2022/11/07 08:25:58;;;;;;;12.82;8.05;;;;;;;12.74;61.46;101827.17;1759953;80;25762;-62
2022/11/07 08:28:29;;;;;;;15.48;7.58;;;;;;;12.95;60.64;101821.89;1737752;82;25525;-61
2022/11/07 08:31:01;;;;;;;22.85;8.28;;;;;;;13.11;59.75;101820.11;1737971;82;25756;-61
2022/11/07 08:33:29;;;;;;;26.75;9.23;;;;;;;13.23;58.89;101816.87;1737661;82;25807;-61
2022/11/07 08:35:59;;;;;;;32.73;9.55;;;;;;;13.33;58.49;101823.23;1738115;82;27618;-61
2022/11/07 08:38:28;;;;;;;13.25;8.43;;;;;;;13.43;58.20;101818.80;1737810;82;25743;-61
2022/11/07 08:40:56;;;;;;;19.02;10.20;;;;;;;13.61;57.73;101820.94;1737962;81;25811;-61
2022/11/07 08:43:23;;;;;;;23.35;9.83;;;;;;;13.81;57.38;101817.03;1738640;82;26369;-61
2022/11/07 08:45:51;;;;;;;19.98;8.73;;;;;;;14.12;56.07;101807.63;1738277;82;26452;-61
2022/11/07 08:48:18;;;;;;;20.15;8.03;;;;;;;14.61;56.29;101801.91;1737309;82;27519;-61
2022/11/07 08:50:45;;;;;;;15.83;9.10;;;;;;;15.32;54.85;101800.08;1738891;82;25792;-61
2022/11/07 08:53:12;;;;;;;23.85;8.80;;;;;;;15.84;52.54;101796.20;1738286;82;26640;-61
2022/11/07 08:55:39;;;;;;;17.75;9.55;;;;;;;15.92;52.38;101796.33;1736303;82;25789;-61
2022/11/07 08:58:07;;;;;;;25.70;7.95;;;;;;;16.22;52.63;101799.31;1735090;82;26070;-61
2022/11/07 09:00:36;;;;;;;22.15;8.03;;;;;;;16.62;50.41;101798.64;1732011;82;27301;-61
2022/11/07 09:03:05;;;;;;;16.85;7.08;;;;;;;16.68;49.61;101798.53;1735988;80;25751;-62
2022/11/07 09:05:32;;;;;;;17.23;7.97;;;;;;;16.29;50.43;101791.43;1734200;81;25823;-61
2022/11/07 09:07:59;;;;;;;17.00;8.60;;;;;;;16.00;50.22;101788.83;1736157;82;25860;-61
2022/11/07 09:10:26;;;;;;;27.20;8.98;;;;;;;16.06;50.64;101789.58;1733637;81;25970;-61
2022/11/07 09:12:53;;;;;;;22.95;8.30;;;;;;;16.18;50.74;101781.59;1731510;82;27621;-61
2022/11/07 09:15:20;;;;;;;17.98;8.33;;;;;;;16.39;50.56;101779.16;1734952;82;25723;-62
2022/11/07 09:17:49;;;;;;;19.05;9.03;;;;;;;16.95;50.12;101781.37;1737900;82;25799;-62
2022/11/07 09:20:17;;;;;;;20.97;8.23;;;;;;;17.55;49.45;101774.95;1737855;82;25964;-62
2022/11/07 09:22:44;;;;;;;14.50;8.25;;;;;;;18.03;47.71;101773.63;1728863;82;25815;-61
2022/11/07 09:25:11;;;;;;;19.32;8.20;;;;;;;18.23;47.08;101778.84;1733025;82;27633;-62
2022/11/07 09:27:38;;;;;;;17.02;7.55;;;;;;;18.72;46.78;101776.84;1729931;82;25728;-61
2022/11/07 09:30:07;;;;;;;14.90;7.35;;;;;;;19.23;45.43;101769.47;1729745;82;25717;-61
2022/11/07 09:32:34;;;;;;;11.55;6.20;;;;;;;19.62;45.04;101772.55;1734417;82;26608;-61
2022/11/07 09:35:01;;;;;;;20.68;8.45;;;;;;;20.14;44.40;101769.89;1734363;82;25739;-62
2022/11/07 09:37:27;;;;;;;14.43;7.40;;;;;;;20.36;43.54;101767.45;1731624;82;28487;-62
2022/11/07 09:39:55;;;;;;;23.73;6.62;;;;;;;20.54;42.12;101763.08;1738207;80;25812;-61
2022/11/07 09:42:30;;;;;;;19.75;6.62;;;;;;;20.98;43.62;101761.68;1717441;82;25677;-62
2022/11/07 09:45:00;;;;;;;8.93;6.10;;;;;;;21.58;42.13;101760.05;1677391;82;26855;-61
2022/11/07 09:47:40;;;;;;;13.50;7.08;;;;;;;21.98;41.07;101755.70;1735672;81;25721;-61
2022/11/07 09:50:36;;;;;;;17.35;7.58;;;;;;;22.21;38.92;101758.36;1730164;82;27493;-61
2022/11/07 09:53:27;;;;;;;18.48;7.08;;;;;;;22.23;39.41;101760.39;1728847;82;25767;-62
2022/11/07 09:56:02;;;;;;;24.12;7.55;;;;;;;22.51;39.43;101751.48;1753369;80;25805;-62
2022/11/07 09:58:36;;;;;;;18.57;6.97;;;;;;;22.77;38.96;101746.01;1748571;81;25969;-62
2022/11/07 10:01:08;;;;;;;15.35;7.35;;;;;;;22.88;36.81;101748.22;1736633;82;25940;-62
2022/11/07 10:03:37;;;;;;;24.07;7.35;;;;;;;22.79;36.01;101743.90;1764555;80;27435;-62
2022/11/07 10:06:24;;;;;;;16.70;7.97;;;;;;;22.79;34.71;101737.91;1747429;80;25883;-62
2022/11/07 10:09:20;;;;;;;42.35;8.90;;;;;;;22.58;35.98;101741.97;1746579;82;25754;-62
2022/11/07 10:12:15;;;;;;;16.82;7.08;;;;;;;22.80;34.63;101729.14;1748289;81;26765;-62
2022/11/07 10:15:02;;;;;;;16.42;7.53;;;;;;;22.86;36.19;101723.41;1747073;81;25827;-62
2022/11/07 10:17:53;;;;;;;16.10;6.87;;;;;;;23.06;35.33;101724.97;1745558;82;27702;-62
2022/11/07 10:20:31;;;;;;;16.27;7.33;;;;;;;23.14;34.70;101720.21;1734626;81;25482;-62
2022/11/07 10:23:18;;;;;;;19.00;6.97;;;;;;;23.06;34.62;101711.25;1745809;80;25760;-62
2022/11/07 10:26:09;;;;;;;18.85;8.13;;;;;;;22.79;33.82;101711.84;1746409;80;25990;-62
2022/11/07 10:28:48;;;;;;;16.95;7.67;;;;;;;22.81;35.31;101704.78;1746667;81;25861;-62
2022/11/07 10:31:15;;;;;;;17.85;7.42;;;;;;;22.94;34.49;101696.70;1746946;82;28186;-62
2022/11/07 10:33:56;;;;;;;19.80;7.70;;;;;;;23.26;35.02;101697.76;1746109;81;25742;-62
2022/11/07 10:36:28;;;;;;;16.10;8.10;;;;;;;23.78;35.02;101683.22;1726039;82;25501;-62
2022/11/07 10:38:56;;;;;;;23.12;7.65;;;;;;;24.16;32.75;101677.32;1744915;82;25777;-62
2022/11/07 10:41:30;;;;;;;17.15;7.92;;;;;;;24.27;32.87;101675.88;1746242;81;25773;-62
2022/11/07 10:44:06;;;;;;;14.68;7.78;;;;;;;24.36;32.69;101669.14;1718667;82;27450;-62
2022/11/07 10:46:45;;;;;;;18.70;7.87;;;;;;;24.74;33.07;101671.06;1743225;81;25715;-62
2022/11/07 10:49:21;;;;;;;15.50;7.50;;;;;;;25.08;32.94;101663.17;1749861;81;25537;-62
2022/11/07 10:51:48;;;;;;;14.18;7.50;;;;;;;25.58;32.42;101659.98;1743716;82;25783;-62
2022/11/07 10:54:30;;;;;;;14.18;7.25;;;;;;;25.61;30.32;101655.39;1744722;82;25780;-61
2022/11/07 10:57:04;;;;;;;12.73;7.30;;;;;;;25.43;31.15;101657.97;1745181;82;27887;-62
2022/11/07 10:59:35;;;;;;;20.10;8.55;;;;;;;25.72;30.91;101653.05;1744028;81;25814;-62
2022/11/07 11:02:16;;;;;;;22.77;7.45;;;;;;;25.88;29.80;101650.36;1749642;82;25810;-61
2022/11/07 11:04:52;;;;;;;14.25;7.37;;;;;;;25.84;30.10;101651.33;1736917;82;25821;-62
2022/11/07 11:07:20;;;;;;;17.82;7.90;;;;;;;25.74;30.23;101648.17;1750009;81;25713;-62
2022/11/07 11:09:56;;;;;;;17.32;7.72;;;;;;;25.48;29.98;101637.53;1745627;82;28175;-61
2022/11/07 11:12:31;;;;;;;17.02;8.03;;;;;;;24.90;30.05;101641.77;1747913;82;25779;-62
2022/11/07 11:15:15;;;;;;;17.67;7.42;;;;;;;24.63;30.47;101635.37;1746166;82;25834;-62
2022/11/07 11:17:43;;;;;;;35.38;8.25;;;;;;;24.34;31.04;101635.50;1746426;82;25809;-62
2022/11/07 11:20:36;;;;;;;30.27;8.48;;;;;;;24.22;31.35;101625.63;1742952;81;25743;-62
2022/11/07 11:23:08;;;;;;;14.33;7.35;;;;;;;24.06;31.08;101624.62;1746610;81;27996;-62
2022/11/07 11:25:48;;;;;;;14.87;7.20;;;;;;;23.36;31.90;101618.62;1744645;81;25444;-61
2022/11/07 11:28:23;;;;;;;16.57;6.87;;;;;;;23.10;32.50;101617.35;1744573;81;25908;-62
2022/11/07 11:30:57;;;;;;;17.02;7.62;;;;;;;23.10;32.53;101610.49;1746410;82;25829;-62
2022/11/07 11:33:32;;;;;;;19.37;6.92;;;;;;;22.59;33.01;101617.54;1745783;81;25835;-62
2022/11/07 11:36:10;;;;;;;17.95;6.92;;;;;;;22.46;33.38;101625.11;1746324;82;27610;-62
2022/11/07 11:38:38;;;;;;;14.93;7.67;;;;;;;22.46;33.19;101625.94;1746809;82;26411;-61
2022/11/07 11:41:24;;;;;;;12.88;7.42;;;;;;;22.15;33.23;101625.69;1744666;82;25826;-61
2022/11/07 11:44:06;;;;;;;17.87;7.35;;;;;;;21.82;33.70;101626.63;1743668;82;25766;-62
2022/11/07 11:46:58;;;;;;;18.37;7.87;;;;;;;21.39;34.25;101628.61;1743369;82;25723;-62
2022/11/07 11:49:44;;;;;;;21.80;7.35;;;;;;;21.11;34.71;101627.36;1741367;81;27658;-61